createdAt,value
2023-04-05T00:01:41.506Z,11.93
2023-04-05T00:04:50.643Z,10.67
2023-04-05T00:07:54.972Z,6.67
2023-04-05T00:10:58.061Z,12.47
2023-04-05T00:14:03.641Z,5.97
2023-04-05T00:17:07.402Z,8.97
2023-04-05T00:20:13.171Z,8.20
2023-04-05T00:23:17.532Z,9.77
2023-04-05T00:26:21.754Z,11.53
2023-04-05T00:29:32.984Z,9.73
2023-04-05T00:32:36.692Z,9.50
2023-04-05T00:35:40.165Z,12.27
2023-04-05T00:38:44.880Z,9.83
2023-04-05T00:41:48.773Z,9.70
2023-04-05T00:44:53.736Z,8.83
2023-04-05T00:47:57.690Z,7.47
2023-04-05T00:51:01.551Z,6.93
2023-04-05T00:54:05.864Z,11.13
2023-04-05T00:57:09.259Z,11.30
2023-04-05T01:00:15.326Z,9.57
2023-04-05T01:03:20.167Z,16.10
2023-04-05T01:06:47.984Z,14.93
2023-04-05T01:09:58.662Z,20.00
2023-04-05T01:13:02.069Z,17.10
2023-04-05T01:16:08.278Z,14.77
2023-04-05T01:19:13.383Z,17.53
2023-04-05T01:22:57.325Z,13.77
2023-04-05T01:26:31.306Z,15.73
2023-04-05T01:29:52.133Z,12.07
2023-04-05T01:33:10.835Z,12.20
2023-04-05T01:36:22.584Z,15.17
2023-04-05T01:39:30.049Z,8.53
2023-04-05T01:42:33.122Z,10.57
2023-04-05T01:45:37.481Z,9.90
2023-04-05T01:48:40.501Z,7.77
2023-04-05T01:51:43.480Z,10.13
2023-04-05T01:54:46.945Z,11.30
2023-04-05T01:57:50.075Z,12.23
2023-04-05T02:00:56.568Z,9.40
2023-04-05T02:04:00.119Z,11.37
2023-04-05T02:07:03.882Z,8.63
2023-04-05T02:10:08.998Z,7.63
2023-04-05T02:13:13.646Z,7.10
2023-04-05T02:16:18.489Z,11.23
2023-04-05T02:19:23.132Z,8.10
2023-04-05T02:22:27.263Z,8.07
2023-04-05T02:25:30.874Z,6.33
2023-04-05T02:28:34.437Z,6.17
2023-04-05T02:31:38.757Z,6.13
2023-04-05T02:34:46.320Z,6.47
2023-04-05T02:37:49.401Z,10.00
2023-04-05T02:40:52.487Z,7.87
2023-04-05T02:43:55.612Z,7.03
2023-04-05T02:47:00.723Z,8.13
2023-04-05T02:50:09.004Z,8.57
2023-04-05T02:53:18.480Z,6.30
2023-04-05T02:56:29.136Z,6.20
2023-04-05T02:59:33.183Z,7.53
2023-04-05T03:02:39.790Z,7.43
2023-04-05T03:05:43.356Z,9.13
2023-04-05T03:08:49.340Z,7.47
2023-04-05T03:11:58.904Z,5.80
2023-04-05T03:15:02.093Z,9.97
2023-04-05T03:18:14.320Z,6.47
2023-04-05T03:21:19.544Z,9.97
2023-04-05T03:24:31.858Z,9.20
2023-04-05T03:27:38.426Z,8.33
2023-04-05T03:30:46.703Z,8.93
2023-04-05T03:33:57.275Z,6.47
2023-04-05T03:37:03.748Z,11.07
2023-04-05T03:40:15.820Z,10.07
2023-04-05T03:43:19.268Z,7.50
2023-04-05T03:46:23.525Z,11.10
2023-04-05T03:49:27.952Z,8.40
2023-04-05T03:52:33.887Z,11.10
2023-04-05T03:55:36.968Z,13.57
2023-04-05T03:58:42.882Z,8.07
2023-04-05T04:01:47.102Z,14.03
2023-04-05T04:04:53.589Z,11.43
2023-04-05T04:07:56.715Z,13.83
2023-04-05T04:11:00.174Z,10.10
2023-04-05T04:14:06.503Z,9.43
2023-04-05T04:17:28.204Z,9.17
2023-04-05T04:20:52.257Z,9.90
2023-04-05T04:24:09.997Z,8.90
2023-04-05T04:27:25.906Z,8.70
2023-04-05T04:30:51.764Z,8.90
2023-04-05T04:34:25.454Z,12.87
2023-04-05T04:37:48.008Z,12.33
2023-04-05T04:41:22.602Z,8.90
2023-04-05T04:44:31.171Z,9.73
2023-04-05T04:47:34.238Z,8.07
2023-04-05T04:50:51.785Z,11.33
2023-04-05T04:53:57.854Z,10.03
2023-04-05T04:57:01.483Z,12.17
2023-04-05T05:00:12.175Z,12.43
2023-04-05T05:03:16.565Z,12.53
2023-04-05T05:06:22.049Z,8.80
2023-04-05T05:09:27.245Z,18.47
2023-04-05T05:12:33.958Z,8.90
2023-04-05T05:15:36.942Z,11.50
2023-04-05T05:18:41.593Z,9.60
2023-04-05T05:21:44.609Z,11.87
2023-04-05T05:24:49.045Z,9.60
2023-04-05T05:27:52.756Z,9.20
2023-04-05T05:30:58.698Z,11.20
2023-04-05T05:34:01.806Z,12.87
2023-04-05T05:37:06.718Z,9.40
2023-04-05T05:40:13.159Z,10.13
2023-04-05T05:43:16.292Z,10.47
2023-04-05T05:46:21.144Z,9.90
2023-04-05T05:49:24.332Z,6.37
2023-04-05T05:52:27.302Z,15.00
2023-04-05T05:55:31.695Z,14.27
2023-04-05T05:58:34.803Z,11.73
2023-04-05T06:01:38.228Z,16.57
2023-04-05T06:04:41.822Z,8.93
2023-04-05T06:07:45.196Z,9.03
2023-04-05T06:10:51.281Z,7.43
2023-04-05T06:13:55.271Z,8.67
2023-04-05T06:16:58.505Z,9.03
2023-04-05T06:20:01.502Z,11.57
2023-04-05T06:23:04.507Z,12.27
2023-04-05T06:26:08.794Z,9.00
2023-04-05T06:29:12.395Z,10.67
2023-04-05T06:32:15.480Z,13.83
2023-04-05T06:35:18.693Z,18.93
2023-04-05T06:38:21.731Z,10.23
2023-04-05T06:41:27.531Z,15.10
2023-04-05T06:44:30.926Z,8.43
2023-04-05T06:47:35.510Z,10.03
2023-04-05T06:50:39.698Z,9.57
2023-04-05T06:53:43.154Z,19.00
2023-04-05T06:56:47.514Z,9.80
2023-04-05T06:59:50.922Z,10.17
2023-04-05T07:02:55.314Z,9.67
2023-04-05T07:06:00.797Z,10.40
2023-04-05T07:09:04.112Z,12.30
2023-04-05T07:12:09.627Z,11.90
2023-04-05T07:15:13.193Z,15.53
2023-04-05T07:18:16.582Z,12.60
2023-04-05T07:21:19.527Z,16.43
2023-04-05T07:24:22.613Z,11.83
2023-04-05T07:27:27.459Z,11.83
2023-04-05T07:30:32.006Z,11.47
2023-04-05T07:33:35.036Z,12.30
2023-04-05T07:36:38.185Z,13.77
2023-04-05T07:39:41.324Z,13.97
2023-04-05T07:42:45.789Z,12.10
2023-04-05T07:45:48.787Z,11.37
2023-04-05T07:48:51.869Z,13.27
2023-04-05T07:51:58.451Z,10.93
2023-04-05T07:55:01.399Z,9.30
2023-04-05T07:58:05.768Z,10.80
2023-04-05T08:01:11.528Z,10.93
2023-04-05T08:04:14.803Z,10.83
2023-04-05T08:07:18.202Z,11.57
2023-04-05T08:10:21.652Z,9.60
2023-04-05T08:13:27.641Z,11.37
2023-04-05T08:16:31.557Z,13.80
2023-04-05T08:19:34.534Z,10.40
2023-04-05T08:22:37.809Z,9.50
2023-04-05T08:25:42.552Z,7.73
2023-04-05T08:28:47.161Z,7.70
2023-04-05T08:31:50.455Z,7.47
2023-04-05T08:34:53.475Z,10.07
2023-04-05T08:37:56.602Z,9.57
2023-04-05T08:41:16.160Z,9.10
2023-04-05T08:44:25.334Z,10.07
2023-04-05T08:47:29.403Z,7.70
2023-04-05T08:50:32.705Z,7.30
2023-04-05T08:53:36.025Z,11.23
2023-04-05T08:56:40.393Z,7.23
2023-04-05T08:59:46.551Z,9.73
2023-04-05T09:02:56.166Z,6.60
2023-04-05T09:06:00.974Z,7.30
2023-04-05T09:09:08.839Z,11.10
2023-04-05T09:12:12.678Z,9.53
2023-04-05T09:15:18.357Z,12.80
2023-04-05T09:18:26.751Z,8.40
2023-04-05T09:21:30.553Z,6.57
2023-04-05T09:24:36.735Z,7.50
2023-04-05T09:27:57.264Z,10.73
2023-04-05T09:31:01.615Z,7.33
2023-04-05T09:34:06.468Z,6.00
2023-04-05T09:37:17.454Z,7.73
2023-04-05T09:40:21.591Z,6.37
2023-04-05T09:43:38.068Z,6.47
2023-04-05T09:46:43.733Z,6.70
2023-04-05T09:49:46.901Z,6.13
2023-04-05T09:52:51.608Z,8.33
2023-04-05T09:55:54.644Z,6.83
2023-04-05T09:59:02.307Z,6.47
2023-04-05T10:02:07.128Z,5.30
2023-04-05T10:05:13.915Z,7.47
2023-04-05T10:08:17.211Z,5.33
2023-04-05T10:11:21.661Z,8.13
2023-04-05T10:14:24.887Z,6.07
2023-04-05T10:17:36.029Z,5.10
2023-04-05T10:20:41.921Z,7.20
2023-04-05T10:23:48.537Z,6.40
2023-04-05T10:27:03.484Z,4.37
2023-04-05T10:30:09.882Z,7.13
2023-04-05T10:33:22.041Z,6.73
2023-04-05T10:36:39.965Z,11.33
2023-04-05T10:39:47.182Z,9.90
2023-04-05T10:42:50.581Z,9.50
2023-04-05T10:45:55.711Z,11.03
2023-04-05T10:49:17.539Z,8.90
2023-04-05T10:52:22.612Z,5.67
2023-04-05T10:55:26.122Z,5.67
2023-04-05T10:58:31.125Z,5.70
2023-04-05T11:01:34.623Z,8.07
2023-04-05T11:04:42.331Z,6.10
2023-04-05T11:07:49.554Z,6.73
2023-04-05T11:10:54.360Z,8.13
2023-04-05T11:13:58.858Z,9.83
2023-04-05T11:17:02.225Z,8.33
2023-04-05T11:20:12.733Z,6.53
2023-04-05T11:23:18.812Z,5.23
2023-04-05T11:26:22.137Z,8.57
2023-04-05T11:29:47.882Z,6.43
2023-04-05T11:32:51.583Z,5.83
2023-04-05T11:36:03.776Z,7.17
2023-04-05T11:39:30.040Z,8.17
2023-04-05T11:42:33.243Z,9.50
2023-04-05T11:45:39.250Z,5.43
2023-04-05T11:48:43.016Z,7.67
2023-04-05T11:51:48.958Z,8.97
2023-04-05T11:54:53.306Z,6.93
2023-04-05T11:57:56.985Z,6.53
2023-04-05T12:01:02.436Z,10.50
2023-04-05T12:04:08.700Z,7.93
2023-04-05T12:07:18.486Z,5.70
2023-04-05T12:10:22.378Z,7.37
2023-04-05T12:13:30.232Z,4.87
2023-04-05T12:16:33.243Z,6.13
2023-04-05T12:19:37.360Z,7.37
2023-04-05T12:22:44.843Z,5.97
2023-04-05T12:25:48.353Z,8.23
2023-04-05T12:28:52.780Z,7.60
2023-04-05T12:31:57.479Z,6.20
2023-04-05T12:35:00.518Z,6.97
2023-04-05T12:38:06.517Z,7.20
2023-04-05T12:41:09.529Z,9.33
2023-04-05T12:44:16.731Z,7.10
2023-04-05T12:47:19.725Z,7.90
2023-04-05T12:50:29.856Z,5.83
2023-04-05T12:53:34.548Z,8.27
2023-04-05T12:56:39.949Z,6.07
2023-04-05T12:59:42.941Z,8.43
2023-04-05T13:02:51.165Z,6.33
2023-04-05T13:05:54.488Z,5.57
2023-04-05T13:08:58.807Z,7.27
2023-04-05T13:12:02.396Z,6.20
2023-04-05T13:15:07.376Z,6.90
2023-04-05T13:18:10.799Z,5.90
2023-04-05T13:21:14.101Z,7.10
2023-04-05T13:24:18.366Z,8.37
2023-04-05T13:27:21.697Z,6.20
2023-04-05T13:30:24.968Z,5.17
2023-04-05T13:33:27.906Z,9.90
2023-04-05T13:36:31.549Z,5.87
2023-04-05T13:39:35.928Z,5.87
2023-04-05T13:42:39.590Z,6.43
2023-04-05T13:45:42.922Z,5.87
2023-04-05T13:48:46.153Z,7.70
2023-04-05T13:51:49.815Z,10.60
2023-04-05T13:55:03.318Z,5.73
2023-04-05T13:58:06.790Z,5.10
2023-04-05T14:01:09.883Z,5.83
2023-04-05T14:04:13.135Z,6.80
2023-04-05T14:07:16.117Z,4.83
2023-04-05T14:10:21.804Z,8.73
2023-04-05T14:13:41.341Z,5.97
2023-04-05T14:16:47.059Z,5.77
2023-04-05T14:19:52.762Z,6.07
2023-04-05T14:22:59.765Z,4.83
2023-04-05T14:26:07.768Z,6.73
2023-04-05T14:29:13.615Z,6.60
2023-04-05T14:32:16.946Z,4.53
2023-04-05T14:35:20.042Z,8.07
2023-04-05T14:38:23.010Z,5.47
2023-04-05T14:41:28.041Z,9.57
2023-04-05T14:44:31.577Z,6.13
2023-04-05T14:47:34.546Z,5.77
2023-04-05T14:50:37.678Z,5.60
2023-04-05T14:53:41.862Z,5.57
2023-04-05T14:56:46.247Z,6.53
2023-04-05T14:59:49.267Z,5.70
2023-04-05T15:02:52.428Z,4.70
2023-04-05T15:05:55.641Z,6.53
2023-04-05T15:08:59.507Z,5.57
2023-04-05T15:12:04.041Z,5.20
2023-04-05T15:15:08.737Z,8.10
2023-04-05T15:18:11.836Z,5.43
2023-04-05T15:21:14.952Z,9.93
2023-04-05T15:24:17.948Z,5.57
2023-04-05T15:27:22.259Z,5.13
2023-04-05T15:30:26.317Z,5.93
2023-04-05T15:33:29.285Z,7.47
2023-04-05T15:36:32.283Z,6.83
2023-04-05T15:39:35.287Z,6.87
2023-04-05T15:42:39.772Z,6.97
2023-04-05T15:45:42.911Z,9.23
2023-04-05T15:48:46.011Z,6.80
2023-04-05T15:51:49.019Z,6.87
2023-04-05T15:54:52.317Z,6.20
2023-04-05T15:57:56.592Z,9.37
2023-04-05T16:00:59.572Z,5.90
2023-04-05T16:04:03.057Z,6.47
2023-04-05T16:07:07.624Z,5.33
2023-04-05T16:10:11.880Z,5.50
2023-04-05T16:13:16.407Z,5.77
2023-04-05T16:16:30.018Z,5.00
2023-04-05T16:19:38.088Z,5.57
2023-04-05T16:22:41.466Z,5.90
2023-04-05T16:25:44.458Z,5.77
2023-04-05T16:28:49.281Z,9.60
2023-04-05T16:31:52.561Z,7.50
2023-04-05T16:34:56.294Z,4.97
2023-04-05T16:38:00.275Z,5.73
2023-04-05T16:41:03.558Z,7.23
2023-04-05T16:44:07.986Z,7.00
2023-04-05T16:47:10.961Z,7.10
2023-04-05T16:50:14.209Z,5.60
2023-04-05T16:53:17.221Z,6.40
2023-04-05T16:56:20.581Z,6.00
2023-04-05T16:59:25.563Z,7.10
2023-04-05T17:02:29.192Z,5.50
2023-04-05T17:05:32.900Z,7.20
2023-04-05T17:08:36.411Z,7.57
2023-04-05T17:11:40.172Z,6.47
2023-04-05T17:20:11.805Z,8.97
2023-04-05T17:23:14.901Z,6.43
2023-04-05T17:26:17.941Z,7.23
2023-04-05T17:29:20.924Z,6.17
2023-04-05T17:32:23.933Z,6.40
2023-04-05T17:35:31.142Z,9.37
2023-04-05T17:38:35.094Z,8.20
2023-04-05T17:41:38.118Z,6.20
2023-04-05T17:44:41.349Z,6.97
2023-04-05T17:47:44.524Z,7.27
2023-04-05T17:50:48.927Z,7.00
2023-04-05T17:53:51.989Z,9.37
2023-04-05T17:56:55.024Z,7.53
2023-04-05T17:59:59.209Z,7.90
2023-04-05T18:03:07.550Z,9.47
2023-04-05T18:06:12.752Z,7.80
2023-04-05T18:09:15.859Z,7.13
2023-04-05T18:12:19.054Z,6.13
2023-04-05T18:15:21.999Z,6.20
2023-04-05T18:18:26.211Z,6.80
2023-04-05T18:21:30.941Z,8.77
2023-04-05T18:24:33.933Z,7.43
2023-04-05T18:27:36.975Z,7.03
2023-04-05T18:30:40.279Z,8.40
2023-04-05T18:33:43.268Z,7.43
2023-04-05T18:36:47.786Z,8.57
2023-04-05T18:39:50.935Z,8.67
2023-04-05T18:42:54.181Z,8.77
2023-04-05T18:45:57.272Z,6.37
2023-04-05T18:49:00.351Z,9.63
2023-04-05T18:52:04.896Z,12.07
2023-04-05T18:55:10.145Z,7.67
2023-04-05T18:58:13.131Z,9.07
2023-04-05T19:01:18.020Z,11.23
2023-04-05T19:04:21.090Z,7.37
2023-04-05T19:07:25.627Z,7.67
2023-04-05T19:10:28.643Z,9.27
2023-04-05T19:13:32.805Z,9.63
2023-04-05T19:16:35.836Z,8.53
2023-04-05T19:19:38.892Z,8.97
2023-04-05T19:22:43.230Z,7.97
2023-04-05T19:25:46.372Z,8.53
2023-04-05T19:28:49.681Z,8.27
2023-04-05T19:31:52.683Z,9.57
2023-04-05T19:34:55.731Z,8.70
2023-04-05T19:38:00.945Z,10.20
2023-04-05T19:41:03.949Z,6.60
2023-04-05T19:44:11.700Z,7.77
2023-04-05T19:47:15.142Z,7.57
2023-04-05T19:50:48.241Z,10.93
2023-04-05T19:53:53.907Z,8.33
2023-04-05T19:56:57.379Z,9.87
2023-04-05T20:00:00.582Z,10.33
2023-04-05T20:03:09.688Z,11.53
2023-04-05T20:06:14.897Z,13.77
2023-04-05T20:09:20.616Z,13.40
2023-04-05T20:12:23.958Z,8.83
2023-04-05T20:15:38.592Z,12.03
2023-04-05T20:18:45.422Z,12.47
2023-04-05T20:21:48.503Z,9.90
2023-04-05T20:24:53.122Z,11.97
2023-04-05T20:27:56.893Z,14.47
2023-04-05T20:30:59.984Z,9.23
2023-04-05T20:34:11.271Z,12.53
2023-04-05T20:37:14.336Z,12.40
2023-04-05T20:40:18.800Z,15.67
2023-04-05T20:43:21.840Z,10.70
2023-04-05T20:46:26.150Z,8.87
2023-04-05T20:49:30.866Z,11.27
2023-04-05T20:52:33.995Z,10.17
2023-04-05T20:55:38.659Z,13.47
2023-04-05T20:58:42.571Z,9.37
2023-04-05T21:01:47.262Z,10.40
2023-04-05T21:04:51.073Z,10.00
2023-04-05T21:07:54.164Z,11.83
2023-04-05T21:10:59.909Z,11.83
2023-04-05T21:14:03.043Z,9.87
2023-04-05T21:17:06.133Z,13.07
2023-04-05T21:20:10.923Z,12.87
2023-04-05T21:23:14.077Z,14.63
2023-04-05T21:26:18.440Z,12.77
2023-04-05T21:29:21.753Z,12.00
2023-04-05T21:32:25.030Z,16.67
2023-04-05T21:35:28.364Z,14.37
2023-04-05T21:38:31.488Z,15.17
2023-04-05T21:41:35.985Z,14.70
2023-04-05T21:44:38.970Z,14.87
2023-04-05T21:47:42.496Z,13.50
2023-04-05T21:50:45.710Z,12.50
2023-04-05T21:53:48.728Z,18.80
2023-04-05T21:56:53.085Z,16.00
2023-04-05T21:59:56.094Z,17.97
2023-04-05T22:02:59.182Z,15.47
2023-04-05T22:06:02.901Z,15.87
2023-04-05T22:09:06.213Z,16.70
2023-04-05T22:12:11.333Z,14.63
2023-04-05T22:15:14.557Z,13.00
2023-04-05T22:18:17.939Z,15.27
2023-04-05T22:21:21.190Z,12.23
2023-04-05T22:24:25.764Z,12.63
2023-04-05T22:27:30.393Z,15.60
2023-04-05T22:30:43.833Z,14.80
2023-04-05T22:33:47.603Z,12.83
2023-04-05T22:36:53.599Z,12.57
2023-04-05T22:39:59.404Z,15.77
2023-04-05T22:43:04.368Z,14.27
2023-04-05T22:46:08.165Z,14.30
2023-04-05T22:49:11.330Z,16.33
2023-04-05T22:52:14.326Z,11.73
2023-04-05T22:55:17.874Z,15.27
2023-04-05T22:58:22.507Z,14.07
2023-04-05T23:01:26.580Z,14.83
2023-04-05T23:04:29.742Z,14.10
2023-04-05T23:07:32.918Z,13.53
2023-04-05T23:10:36.004Z,11.30
2023-04-05T23:13:40.837Z,15.20
2023-04-05T23:16:44.097Z,11.60
2023-04-05T23:19:47.116Z,13.60
2023-04-05T23:22:50.187Z,18.97
2023-04-05T23:25:53.259Z,13.03
2023-04-05T23:28:57.696Z,15.67
2023-04-05T23:32:00.793Z,15.37
2023-04-05T23:35:03.846Z,12.13
2023-04-05T23:38:07.296Z,12.03
2023-04-05T23:41:11.146Z,15.37
2023-04-05T23:44:15.951Z,12.63
2023-04-05T23:47:19.252Z,15.40
2023-04-05T23:50:22.500Z,15.20
2023-04-05T23:53:25.854Z,12.27
2023-04-05T23:56:28.904Z,15.27
2023-04-05T23:59:33.375Z,13.53
